sensor_id;sensor_type;location;lat;lon;timestamp;temperature;humidity
18073;DHT22;9161;47.348;9.648;2023-03-31T00:01:12;10.70;99.90
18073;DHT22;9161;47.348;9.648;2023-03-31T00:06:14;10.60;99.90
18073;DHT22;9161;47.348;9.648;2023-03-31T00:11:21;10.70;99.90
18073;DHT22;9161;47.348;9.648;2023-03-31T00:16:23;10.50;99.90
18073;DHT22;9161;47.348;9.648;2023-03-31T00:21:27;10.40;99.90
18073;DHT22;9161;47.348;9.648;2023-03-31T00:26:35;10.30;99.90
18073;DHT22;9161;47.348;9.648;2023-03-31T00:31:37;10.40;99.90
18073;DHT22;9161;47.348;9.648;2023-03-31T00:36:39;10.50;99.90
18073;DHT22;9161;47.348;9.648;2023-03-31T00:41:46;10.50;99.90
18073;DHT22;9161;47.348;9.648;2023-03-31T00:46:51;10.20;99.90
18073;DHT22;9161;47.348;9.648;2023-03-31T00:52:00;10.10;99.90
18073;DHT22;9161;47.348;9.648;2023-03-31T00:57:07;10.00;99.90
18073;DHT22;9161;47.348;9.648;2023-03-31T01:02:14;10.20;99.90
18073;DHT22;9161;47.348;9.648;2023-03-31T01:07:21;10.20;99.90
18073;DHT22;9161;47.348;9.648;2023-03-31T01:12:27;10.30;99.90
18073;DHT22;9161;47.348;9.648;2023-03-31T01:17:30;10.10;99.90
18073;DHT22;9161;47.348;9.648;2023-03-31T01:28:14;10.40;99.90
18073;DHT22;9161;47.348;9.648;2023-03-31T01:44:44;10.10;99.90
18073;DHT22;9161;47.348;9.648;2023-03-31T01:49:53;9.80;99.90
18073;DHT22;9161;47.348;9.648;2023-03-31T01:55:03;10.10;99.90
18073;DHT22;9161;47.348;9.648;2023-03-31T02:00:11;10.00;99.90
18073;DHT22;9161;47.348;9.648;2023-03-31T02:05:17;10.00;99.90
18073;DHT22;9161;47.348;9.648;2023-03-31T02:10:21;10.10;99.90
18073;DHT22;9161;47.348;9.648;2023-03-31T02:15:29;10.30;99.90
18073;DHT22;9161;47.348;9.648;2023-03-31T02:20:32;10.40;99.90
18073;DHT22;9161;47.348;9.648;2023-03-31T02:25:40;10.20;99.90
18073;DHT22;9161;47.348;9.648;2023-03-31T02:30:52;10.30;99.90
18073;DHT22;9161;47.348;9.648;2023-03-31T02:35:57;10.00;99.90
18073;DHT22;9161;47.348;9.648;2023-03-31T02:41:00;10.00;99.90
18073;DHT22;9161;47.348;9.648;2023-03-31T02:46:03;10.00;99.90
18073;DHT22;9161;47.348;9.648;2023-03-31T02:57:00;9.90;99.90
18073;DHT22;9161;47.348;9.648;2023-03-31T03:02:14;10.00;99.90
18073;DHT22;9161;47.348;9.648;2023-03-31T03:07:23;9.90;99.90
18073;DHT22;9161;47.348;9.648;2023-03-31T03:12:31;9.80;99.90
18073;DHT22;9161;47.348;9.648;2023-03-31T03:17:38;10.00;99.90
18073;DHT22;9161;47.348;9.648;2023-03-31T03:22:42;9.90;99.90
18073;DHT22;9161;47.348;9.648;2023-03-31T03:27:46;9.90;99.90
18073;DHT22;9161;47.348;9.648;2023-03-31T03:32:50;9.80;99.90
18073;DHT22;9161;47.348;9.648;2023-03-31T03:37:54;9.70;99.90
18073;DHT22;9161;47.348;9.648;2023-03-31T03:42:56;9.60;99.90
18073;DHT22;9161;47.348;9.648;2023-03-31T03:48:00;9.40;99.90
18073;DHT22;9161;47.348;9.648;2023-03-31T03:53:02;9.60;99.90
18073;DHT22;9161;47.348;9.648;2023-03-31T03:58:05;9.50;99.90
18073;DHT22;9161;47.348;9.648;2023-03-31T04:03:08;9.70;99.90
18073;DHT22;9161;47.348;9.648;2023-03-31T04:08:12;9.50;99.90
18073;DHT22;9161;47.348;9.648;2023-03-31T04:13:16;9.40;99.90
18073;DHT22;9161;47.348;9.648;2023-03-31T04:18:20;9.50;99.90
18073;DHT22;9161;47.348;9.648;2023-03-31T04:23:23;9.50;99.90
18073;DHT22;9161;47.348;9.648;2023-03-31T04:28:26;9.60;99.90
18073;DHT22;9161;47.348;9.648;2023-03-31T04:33:36;9.70;99.90
18073;DHT22;9161;47.348;9.648;2023-03-31T04:38:39;9.60;99.90
18073;DHT22;9161;47.348;9.648;2023-03-31T04:43:42;9.60;99.90
18073;DHT22;9161;47.348;9.648;2023-03-31T04:48:46;9.50;99.90
18073;DHT22;9161;47.348;9.648;2023-03-31T04:53:49;9.50;99.90
18073;DHT22;9161;47.348;9.648;2023-03-31T04:58:52;9.50;99.90
18073;DHT22;9161;47.348;9.648;2023-03-31T05:03:56;9.50;99.90
18073;DHT22;9161;47.348;9.648;2023-03-31T05:08:58;9.50;99.90
18073;DHT22;9161;47.348;9.648;2023-03-31T05:14:00;9.40;99.90
18073;DHT22;9161;47.348;9.648;2023-03-31T05:19:23;9.50;99.90
18073;DHT22;9161;47.348;9.648;2023-03-31T05:30:25;9.90;99.90
18073;DHT22;9161;47.348;9.648;2023-03-31T05:35:28;10.10;99.90
18073;DHT22;9161;47.348;9.648;2023-03-31T05:40:31;10.20;99.90
18073;DHT22;9161;47.348;9.648;2023-03-31T05:45:33;10.50;99.90
18073;DHT22;9161;47.348;9.648;2023-03-31T05:50:37;10.40;99.90
18073;DHT22;9161;47.348;9.648;2023-03-31T05:55:39;10.60;99.90
18073;DHT22;9161;47.348;9.648;2023-03-31T06:00:42;10.80;99.90
18073;DHT22;9161;47.348;9.648;2023-03-31T06:05:47;10.80;99.90
18073;DHT22;9161;47.348;9.648;2023-03-31T06:10:50;11.10;99.90
18073;DHT22;9161;47.348;9.648;2023-03-31T06:15:53;11.40;99.90
18073;DHT22;9161;47.348;9.648;2023-03-31T06:20:58;11.40;99.90
18073;DHT22;9161;47.348;9.648;2023-03-31T06:26:02;11.70;99.90
18073;DHT22;9161;47.348;9.648;2023-03-31T06:31:06;11.80;99.90
18073;DHT22;9161;47.348;9.648;2023-03-31T06:36:12;11.80;99.90
18073;DHT22;9161;47.348;9.648;2023-03-31T06:41:16;12.20;99.90
18073;DHT22;9161;47.348;9.648;2023-03-31T06:46:18;12.20;99.90
18073;DHT22;9161;47.348;9.648;2023-03-31T06:51:22;12.30;99.90
18073;DHT22;9161;47.348;9.648;2023-03-31T06:56:24;12.40;99.90
18073;DHT22;9161;47.348;9.648;2023-03-31T07:01:28;12.50;99.90
18073;DHT22;9161;47.348;9.648;2023-03-31T07:06:33;12.70;99.90
18073;DHT22;9161;47.348;9.648;2023-03-31T07:11:35;13.10;99.90
18073;DHT22;9161;47.348;9.648;2023-03-31T07:16:37;13.20;99.90
18073;DHT22;9161;47.348;9.648;2023-03-31T07:21:40;13.30;99.90
18073;DHT22;9161;47.348;9.648;2023-03-31T07:26:43;13.70;99.90
18073;DHT22;9161;47.348;9.648;2023-03-31T07:31:46;13.90;99.90
18073;DHT22;9161;47.348;9.648;2023-03-31T07:36:50;13.90;99.90
18073;DHT22;9161;47.348;9.648;2023-03-31T07:41:52;14.10;99.90
18073;DHT22;9161;47.348;9.648;2023-03-31T07:46:54;14.10;99.90
18073;DHT22;9161;47.348;9.648;2023-03-31T07:52:00;14.00;99.90
18073;DHT22;9161;47.348;9.648;2023-03-31T07:57:02;13.70;99.90
18073;DHT22;9161;47.348;9.648;2023-03-31T08:02:06;13.50;99.90
18073;DHT22;9161;47.348;9.648;2023-03-31T08:07:11;12.70;99.90
18073;DHT22;9161;47.348;9.648;2023-03-31T08:12:14;12.10;99.90
18073;DHT22;9161;47.348;9.648;2023-03-31T08:17:16;11.70;99.90
18073;DHT22;9161;47.348;9.648;2023-03-31T08:22:20;12.10;99.90
18073;DHT22;9161;47.348;9.648;2023-03-31T08:27:23;11.60;99.90
18073;DHT22;9161;47.348;9.648;2023-03-31T08:32:25;11.60;99.90
18073;DHT22;9161;47.348;9.648;2023-03-31T08:37:29;11.30;99.90
18073;DHT22;9161;47.348;9.648;2023-03-31T08:42:36;11.30;99.90
18073;DHT22;9161;47.348;9.648;2023-03-31T08:47:40;11.20;99.90
18073;DHT22;9161;47.348;9.648;2023-03-31T08:52:47;11.70;99.90
18073;DHT22;9161;47.348;9.648;2023-03-31T08:57:56;11.80;99.90
18073;DHT22;9161;47.348;9.648;2023-03-31T09:03:04;12.10;99.90
18073;DHT22;9161;47.348;9.648;2023-03-31T09:08:17;12.20;99.90
18073;DHT22;9161;47.348;9.648;2023-03-31T09:13:46;11.90;99.90
18073;DHT22;9161;47.348;9.648;2023-03-31T09:18:52;11.80;99.90
18073;DHT22;9161;47.348;9.648;2023-03-31T09:24:02;12.30;99.90
18073;DHT22;9161;47.348;9.648;2023-03-31T09:29:12;12.70;99.90
18073;DHT22;9161;47.348;9.648;2023-03-31T09:34:24;12.70;99.90
18073;DHT22;9161;47.348;9.648;2023-03-31T09:39:28;12.70;99.90
18073;DHT22;9161;47.348;9.648;2023-03-31T09:44:36;13.00;99.90
18073;DHT22;9161;47.348;9.648;2023-03-31T09:49:40;13.20;99.90
18073;DHT22;9161;47.348;9.648;2023-03-31T09:54:58;13.10;99.90
18073;DHT22;9161;47.348;9.648;2023-03-31T10:00:03;13.30;99.90
18073;DHT22;9161;47.348;9.648;2023-03-31T10:05:28;13.30;99.90
18073;DHT22;9161;47.348;9.648;2023-03-31T10:10:33;13.20;99.90
18073;DHT22;9161;47.348;9.648;2023-03-31T10:15:36;13.10;99.90
18073;DHT22;9161;47.348;9.648;2023-03-31T10:20:44;12.90;99.90
18073;DHT22;9161;47.348;9.648;2023-03-31T10:25:51;13.00;99.90
18073;DHT22;9161;47.348;9.648;2023-03-31T10:30:55;13.00;99.90
18073;DHT22;9161;47.348;9.648;2023-03-31T10:36:07;12.80;99.90
18073;DHT22;9161;47.348;9.648;2023-03-31T10:41:11;12.60;99.90
18073;DHT22;9161;47.348;9.648;2023-03-31T10:46:19;12.30;99.90
18073;DHT22;9161;47.348;9.648;2023-03-31T10:51:25;12.30;99.90
18073;DHT22;9161;47.348;9.648;2023-03-31T10:56:35;13.10;99.90
18073;DHT22;9161;47.348;9.648;2023-03-31T11:01:49;13.00;99.90
18073;DHT22;9161;47.348;9.648;2023-03-31T11:07:03;12.80;99.90
18073;DHT22;9161;47.348;9.648;2023-03-31T11:12:17;13.20;99.90
18073;DHT22;9161;47.348;9.648;2023-03-31T11:17:33;13.70;99.90
18073;DHT22;9161;47.348;9.648;2023-03-31T11:22:45;14.10;99.90
18073;DHT22;9161;47.348;9.648;2023-03-31T11:33:55;14.20;99.90
18073;DHT22;9161;47.348;9.648;2023-03-31T11:39:17;14.20;99.90
18073;DHT22;9161;47.348;9.648;2023-03-31T11:44:24;14.30;99.90
18073;DHT22;9161;47.348;9.648;2023-03-31T11:49:29;14.60;99.90
18073;DHT22;9161;47.348;9.648;2023-03-31T11:54:41;16.00;99.90
18073;DHT22;9161;47.348;9.648;2023-03-31T11:59:51;16.50;99.90
18073;DHT22;9161;47.348;9.648;2023-03-31T12:04:54;16.20;99.90
18073;DHT22;9161;47.348;9.648;2023-03-31T12:10:02;15.50;99.90
18073;DHT22;9161;47.348;9.648;2023-03-31T12:15:13;16.00;99.90
18073;DHT22;9161;47.348;9.648;2023-03-31T12:20:25;16.00;99.90
18073;DHT22;9161;47.348;9.648;2023-03-31T12:25:41;15.70;99.90
18073;DHT22;9161;47.348;9.648;2023-03-31T12:30:48;16.30;99.90
18073;DHT22;9161;47.348;9.648;2023-03-31T12:36:12;17.60;99.90
18073;DHT22;9161;47.348;9.648;2023-03-31T12:41:21;18.60;99.90
18073;DHT22;9161;47.348;9.648;2023-03-31T12:52:07;17.20;99.50
18073;DHT22;9161;47.348;9.648;2023-03-31T12:57:14;18.30;99.90
18073;DHT22;9161;47.348;9.648;2023-03-31T13:02:24;19.80;99.90
18073;DHT22;9161;47.348;9.648;2023-03-31T13:07:38;21.20;99.90
18073;DHT22;9161;47.348;9.648;2023-03-31T13:12:57;21.10;99.90
18073;DHT22;9161;47.348;9.648;2023-03-31T13:18:04;20.30;99.90
18073;DHT22;9161;47.348;9.648;2023-03-31T13:23:17;18.70;99.90
18073;DHT22;9161;47.348;9.648;2023-03-31T13:28:26;15.10;99.90
18073;DHT22;9161;47.348;9.648;2023-03-31T13:33:37;12.60;99.90
18073;DHT22;9161;47.348;9.648;2023-03-31T13:38:48;11.80;99.90
18073;DHT22;9161;47.348;9.648;2023-03-31T13:44:13;12.30;99.90
18073;DHT22;9161;47.348;9.648;2023-03-31T13:49:42;12.80;99.90
18073;DHT22;9161;47.348;9.648;2023-03-31T13:55:12;12.80;99.90
18073;DHT22;9161;47.348;9.648;2023-03-31T14:00:33;14.40;99.90
18073;DHT22;9161;47.348;9.648;2023-03-31T14:05:41;16.70;99.90
18073;DHT22;9161;47.348;9.648;2023-03-31T14:10:44;16.10;99.90
18073;DHT22;9161;47.348;9.648;2023-03-31T14:15:49;15.30;99.90
18073;DHT22;9161;47.348;9.648;2023-03-31T14:21:14;15.00;99.90
18073;DHT22;9161;47.348;9.648;2023-03-31T14:26:37;14.30;99.90
18073;DHT22;9161;47.348;9.648;2023-03-31T14:31:51;12.20;99.90
18073;DHT22;9161;47.348;9.648;2023-03-31T14:36:59;10.50;99.90
18073;DHT22;9161;47.348;9.648;2023-03-31T14:42:05;10.70;99.90
18073;DHT22;9161;47.348;9.648;2023-03-31T14:47:14;11.10;99.90
18073;DHT22;9161;47.348;9.648;2023-03-31T14:52:20;11.60;99.90
18073;DHT22;9161;47.348;9.648;2023-03-31T14:57:27;11.40;99.90
18073;DHT22;9161;47.348;9.648;2023-03-31T15:02:34;11.30;99.90
18073;DHT22;9161;47.348;9.648;2023-03-31T15:07:39;12.60;99.90
18073;DHT22;9161;47.348;9.648;2023-03-31T15:12:42;13.70;99.90
18073;DHT22;9161;47.348;9.648;2023-03-31T15:17:46;14.20;99.90
18073;DHT22;9161;47.348;9.648;2023-03-31T15:22:50;14.70;98.40
18073;DHT22;9161;47.348;9.648;2023-03-31T15:27:56;15.60;98.60
18073;DHT22;9161;47.348;9.648;2023-03-31T15:33:00;16.40;96.60
18073;DHT22;9161;47.348;9.648;2023-03-31T15:38:20;17.40;95.10
18073;DHT22;9161;47.348;9.648;2023-03-31T15:43:28;18.20;94.10
18073;DHT22;9161;47.348;9.648;2023-03-31T15:48:33;17.30;92.90
18073;DHT22;9161;47.348;9.648;2023-03-31T15:53:43;16.50;92.20
18073;DHT22;9161;47.348;9.648;2023-03-31T15:58:57;17.10;89.60
18073;DHT22;9161;47.348;9.648;2023-03-31T16:04:00;17.90;90.30
18073;DHT22;9161;47.348;9.648;2023-03-31T16:09:06;17.80;92.10
18073;DHT22;9161;47.348;9.648;2023-03-31T16:14:16;15.80;90.40
18073;DHT22;9161;47.348;9.648;2023-03-31T16:19:23;15.10;93.40
18073;DHT22;9161;47.348;9.648;2023-03-31T16:24:31;14.50;96.00
18073;DHT22;9161;47.348;9.648;2023-03-31T16:29:35;14.30;99.80
18073;DHT22;9161;47.348;9.648;2023-03-31T16:34:54;14.10;99.90
18073;DHT22;9161;47.348;9.648;2023-03-31T16:39:58;13.50;99.90
18073;DHT22;9161;47.348;9.648;2023-03-31T16:45:01;12.40;99.90
18073;DHT22;9161;47.348;9.648;2023-03-31T16:50:14;10.50;99.90
18073;DHT22;9161;47.348;9.648;2023-03-31T16:55:18;10.80;99.90
18073;DHT22;9161;47.348;9.648;2023-03-31T17:00:21;10.80;99.90
18073;DHT22;9161;47.348;9.648;2023-03-31T17:05:24;11.40;99.90
18073;DHT22;9161;47.348;9.648;2023-03-31T17:10:28;11.50;99.90
18073;DHT22;9161;47.348;9.648;2023-03-31T17:15:31;11.30;99.90
18073;DHT22;9161;47.348;9.648;2023-03-31T17:20:36;11.00;99.90
18073;DHT22;9161;47.348;9.648;2023-03-31T17:25:46;11.00;99.90
18073;DHT22;9161;47.348;9.648;2023-03-31T17:30:48;11.10;99.90
18073;DHT22;9161;47.348;9.648;2023-03-31T17:35:55;11.30;99.90
18073;DHT22;9161;47.348;9.648;2023-03-31T17:41:03;11.40;99.90
18073;DHT22;9161;47.348;9.648;2023-03-31T17:46:08;11.40;99.90
18073;DHT22;9161;47.348;9.648;2023-03-31T17:51:14;11.30;99.90
18073;DHT22;9161;47.348;9.648;2023-03-31T17:56:22;11.30;99.90
18073;DHT22;9161;47.348;9.648;2023-03-31T18:01:29;11.20;99.90
18073;DHT22;9161;47.348;9.648;2023-03-31T18:06:32;10.80;99.90
18073;DHT22;9161;47.348;9.648;2023-03-31T18:11:36;11.00;99.90
18073;DHT22;9161;47.348;9.648;2023-03-31T18:16:40;10.70;99.90
18073;DHT22;9161;47.348;9.648;2023-03-31T18:21:46;10.50;99.90
18073;DHT22;9161;47.348;9.648;2023-03-31T18:26:52;10.60;99.90
18073;DHT22;9161;47.348;9.648;2023-03-31T18:31:55;10.60;99.90
18073;DHT22;9161;47.348;9.648;2023-03-31T18:36:59;10.60;99.90
18073;DHT22;9161;47.348;9.648;2023-03-31T18:42:05;10.50;99.90
18073;DHT22;9161;47.348;9.648;2023-03-31T18:47:14;10.60;99.90
18073;DHT22;9161;47.348;9.648;2023-03-31T18:52:29;11.00;99.90
18073;DHT22;9161;47.348;9.648;2023-03-31T18:57:35;11.60;99.90
18073;DHT22;9161;47.348;9.648;2023-03-31T19:02:39;11.70;99.90
18073;DHT22;9161;47.348;9.648;2023-03-31T19:07:50;11.70;99.90
18073;DHT22;9161;47.348;9.648;2023-03-31T19:12:56;11.80;99.90
18073;DHT22;9161;47.348;9.648;2023-03-31T19:18:00;11.90;99.80
18073;DHT22;9161;47.348;9.648;2023-03-31T19:23:07;11.70;99.90
18073;DHT22;9161;47.348;9.648;2023-03-31T19:28:19;11.20;99.90
18073;DHT22;9161;47.348;9.648;2023-03-31T19:33:26;11.00;99.90
18073;DHT22;9161;47.348;9.648;2023-03-31T19:38:33;10.90;99.90
18073;DHT22;9161;47.348;9.648;2023-03-31T19:43:41;10.10;99.90
18073;DHT22;9161;47.348;9.648;2023-03-31T19:48:48;9.30;99.90
18073;DHT22;9161;47.348;9.648;2023-03-31T19:53:52;8.90;99.90
18073;DHT22;9161;47.348;9.648;2023-03-31T19:58:57;9.00;99.90
18073;DHT22;9161;47.348;9.648;2023-03-31T20:04:00;9.00;99.90
18073;DHT22;9161;47.348;9.648;2023-03-31T20:09:09;8.80;99.90
18073;DHT22;9161;47.348;9.648;2023-03-31T20:14:14;8.70;99.90
18073;DHT22;9161;47.348;9.648;2023-03-31T20:19:19;8.70;99.90
18073;DHT22;9161;47.348;9.648;2023-03-31T20:24:24;9.10;99.90
18073;DHT22;9161;47.348;9.648;2023-03-31T20:29:30;9.00;99.90
18073;DHT22;9161;47.348;9.648;2023-03-31T20:34:34;9.20;99.90
18073;DHT22;9161;47.348;9.648;2023-03-31T20:39:38;9.30;99.90
18073;DHT22;9161;47.348;9.648;2023-03-31T20:44:43;9.70;99.90
18073;DHT22;9161;47.348;9.648;2023-03-31T20:49:46;10.00;99.90
18073;DHT22;9161;47.348;9.648;2023-03-31T20:54:49;10.30;99.90
18073;DHT22;9161;47.348;9.648;2023-03-31T20:59:53;10.00;99.90
18073;DHT22;9161;47.348;9.648;2023-03-31T21:04:57;10.20;99.90
18073;DHT22;9161;47.348;9.648;2023-03-31T21:09:59;10.40;99.90
18073;DHT22;9161;47.348;9.648;2023-03-31T21:15:03;10.40;99.90
18073;DHT22;9161;47.348;9.648;2023-03-31T21:20:07;10.30;99.90
18073;DHT22;9161;47.348;9.648;2023-03-31T21:25:10;10.00;99.90
18073;DHT22;9161;47.348;9.648;2023-03-31T21:30:16;10.00;99.90
18073;DHT22;9161;47.348;9.648;2023-03-31T21:35:19;10.00;99.90
18073;DHT22;9161;47.348;9.648;2023-03-31T21:40:21;9.60;99.90
18073;DHT22;9161;47.348;9.648;2023-03-31T21:45:24;9.70;99.90
18073;DHT22;9161;47.348;9.648;2023-03-31T21:50:27;9.70;99.90
18073;DHT22;9161;47.348;9.648;2023-03-31T21:55:30;9.90;99.90
18073;DHT22;9161;47.348;9.648;2023-03-31T22:00:33;10.00;99.90
18073;DHT22;9161;47.348;9.648;2023-03-31T22:05:37;9.90;99.90
18073;DHT22;9161;47.348;9.648;2023-03-31T22:10:39;9.80;99.90
18073;DHT22;9161;47.348;9.648;2023-03-31T22:15:43;9.70;99.90
18073;DHT22;9161;47.348;9.648;2023-03-31T22:20:46;9.70;99.90
18073;DHT22;9161;47.348;9.648;2023-03-31T22:25:49;10.00;99.90
18073;DHT22;9161;47.348;9.648;2023-03-31T22:30:53;10.00;99.90
18073;DHT22;9161;47.348;9.648;2023-03-31T22:35:55;10.10;99.90
18073;DHT22;9161;47.348;9.648;2023-03-31T22:40:58;10.10;99.90
18073;DHT22;9161;47.348;9.648;2023-03-31T22:46:03;9.70;99.90
18073;DHT22;9161;47.348;9.648;2023-03-31T22:51:06;9.40;99.90
18073;DHT22;9161;47.348;9.648;2023-03-31T22:56:10;9.20;99.90
18073;DHT22;9161;47.348;9.648;2023-03-31T23:01:16;8.90;99.90
18073;DHT22;9161;47.348;9.648;2023-03-31T23:06:19;8.70;99.90
18073;DHT22;9161;47.348;9.648;2023-03-31T23:11:21;8.60;99.90
18073;DHT22;9161;47.348;9.648;2023-03-31T23:16:25;8.60;99.90
18073;DHT22;9161;47.348;9.648;2023-03-31T23:21:28;8.60;99.90
18073;DHT22;9161;47.348;9.648;2023-03-31T23:26:32;8.70;99.90
18073;DHT22;9161;47.348;9.648;2023-03-31T23:31:35;8.60;99.90
18073;DHT22;9161;47.348;9.648;2023-03-31T23:36:38;8.40;99.90
18073;DHT22;9161;47.348;9.648;2023-03-31T23:41:41;8.40;99.90
18073;DHT22;9161;47.348;9.648;2023-03-31T23:46:44;8.50;99.90
18073;DHT22;9161;47.348;9.648;2023-03-31T23:51:46;8.60;99.90
18073;DHT22;9161;47.348;9.648;2023-03-31T23:56:48;8.70;99.90
